Aérodrome :







RETROUVEZ-NOUS SUR...

 
LOGIN :

S'inscrire | Disclaimer

   EN    FR    IT 

 









Légende :    VFR   VFR Marginal   IFR   IFR Intensif   IFR Très Intensif
Visi : 
Plafond : 
>= 8 km
>= 3000ft
5 à 8 km
1000 à 3000 ft
1500m à 5 km
500 à 1000 ft
800 à 1500m
200 à 500 ft
< 800m
< 200 ft
Symboles :   Orages  Brouillard  Fortes neiges  Fortes précipitations  Vent > 20 kt






- Altitude de l'aérodrome : 23 ft
- Code IATA : STT


TIST - King

DERNIER METAR :
  • 310053Z 08007KT 10SM CLR 28/23 A3002 RMK AO2 SLP166 T02780233 PNO

METARs EXPIRÉS :
  • 302353Z 08008KT 10SM CLR 28/23 A3001 RMK AO2 SLP162 6//// T02780228 10306 20278 53009 PNO
  • 302253Z 12009KT 10SM CLR 29/23 A3000 RMK AO2 SLP159 T02890228 PNO

TAF TIST
Valide du 31 à 00h jusqu'au 01 à 00h UTC


302341Z 3100/3124 10008KT P6SM FEW025
FM311400 13013KT P6SM FEW025 FEW050
FM312200 09008KT P6SM FEW030
FIR TJZS / Amérique du Nord



MET'MAP, la Météo Aéronautique d'un coup d'oeil ! - Copyright ORBIFLY Décembre 2007 - Disclaimer

ORBIFLY MET'MAP TEAM :

Programmation & Développement : Alexandra Zaïnal
Sur une idée originale de : Baudouin d'Aumeries
Assistance à la programmation : Marc-Olivier Méhu
Soutien technique & logistique : Manuel Goepfert

Contact : metmap@orbifly.com




SOURCES & CREDITS :

   NOAA